sensor_id;sensor_type;location;lat;lon;timestamp;P1;durP1;ratioP1;P2;durP2;ratioP2
21166;SDS011;10741;52.272;9.580;2023-06-24T00:00:59;9.80;;;5.27;;
21166;SDS011;10741;52.272;9.580;2023-06-24T00:03:25;6.00;;;5.03;;
21166;SDS011;10741;52.272;9.580;2023-06-24T00:05:51;5.67;;;5.07;;
21166;SDS011;10741;52.272;9.580;2023-06-24T00:08:18;8.20;;;5.17;;
21166;SDS011;10741;52.272;9.580;2023-06-24T00:10:47;6.13;;;5.53;;
21166;SDS011;10741;52.272;9.580;2023-06-24T00:13:13;6.17;;;5.57;;
21166;SDS011;10741;52.272;9.580;2023-06-24T00:15:41;9.90;;;5.30;;
21166;SDS011;10741;52.272;9.580;2023-06-24T00:18:10;6.40;;;5.20;;
21166;SDS011;10741;52.272;9.580;2023-06-24T00:20:35;7.53;;;5.33;;
21166;SDS011;10741;52.272;9.580;2023-06-24T00:23:02;7.30;;;4.87;;
21166;SDS011;10741;52.272;9.580;2023-06-24T00:25:28;8.10;;;6.00;;
21166;SDS011;10741;52.272;9.580;2023-06-24T00:27:54;6.67;;;5.37;;
21166;SDS011;10741;52.272;9.580;2023-06-24T00:30:20;8.20;;;5.53;;
21166;SDS011;10741;52.272;9.580;2023-06-24T00:32:46;8.30;;;4.90;;
21166;SDS011;10741;52.272;9.580;2023-06-24T00:35:11;8.93;;;5.33;;
21166;SDS011;10741;52.272;9.580;2023-06-24T00:37:38;10.93;;;5.13;;
21166;SDS011;10741;52.272;9.580;2023-06-24T00:40:04;10.17;;;5.60;;
21166;SDS011;10741;52.272;9.580;2023-06-24T00:42:30;10.43;;;5.33;;
21166;SDS011;10741;52.272;9.580;2023-06-24T00:44:57;10.67;;;5.90;;
21166;SDS011;10741;52.272;9.580;2023-06-24T00:47:22;11.57;;;5.27;;
21166;SDS011;10741;52.272;9.580;2023-06-24T00:49:49;9.90;;;5.30;;
21166;SDS011;10741;52.272;9.580;2023-06-24T00:52:15;10.03;;;5.17;;
21166;SDS011;10741;52.272;9.580;2023-06-24T00:54:44;5.90;;;5.20;;
21166;SDS011;10741;52.272;9.580;2023-06-24T00:57:10;8.67;;;4.87;;
21166;SDS011;10741;52.272;9.580;2023-06-24T00:59:37;7.87;;;4.63;;
21166;SDS011;10741;52.272;9.580;2023-06-24T01:02:03;6.77;;;5.23;;
21166;SDS011;10741;52.272;9.580;2023-06-24T01:04:33;9.57;;;5.47;;
21166;SDS011;10741;52.272;9.580;2023-06-24T01:06:59;5.70;;;5.10;;
21166;SDS011;10741;52.272;9.580;2023-06-24T01:09:26;6.73;;;5.17;;
21166;SDS011;10741;52.272;9.580;2023-06-24T01:11:53;9.20;;;5.30;;
21166;SDS011;10741;52.272;9.580;2023-06-24T01:14:18;11.27;;;5.23;;
21166;SDS011;10741;52.272;9.580;2023-06-24T01:33:46;9.90;;;5.20;;
21166;SDS011;10741;52.272;9.580;2023-06-24T01:36:25;6.57;;;5.00;;
21166;SDS011;10741;52.272;9.580;2023-06-24T01:38:58;8.57;;;5.20;;
21166;SDS011;10741;52.272;9.580;2023-06-24T01:41:30;7.07;;;4.83;;
21166;SDS011;10741;52.272;9.580;2023-06-24T01:44:01;5.73;;;5.07;;
21166;SDS011;10741;52.272;9.580;2023-06-24T01:46:28;5.97;;;4.87;;
21166;SDS011;10741;52.272;9.580;2023-06-24T01:48:55;7.47;;;5.07;;
21166;SDS011;10741;52.272;9.580;2023-06-24T01:51:27;7.13;;;4.60;;
21166;SDS011;10741;52.272;9.580;2023-06-24T01:53:58;6.23;;;4.83;;
21166;SDS011;10741;52.272;9.580;2023-06-24T01:56:27;9.60;;;4.77;;
21166;SDS011;10741;52.272;9.580;2023-06-24T01:58:54;9.07;;;5.03;;
21166;SDS011;10741;52.272;9.580;2023-06-24T02:01:23;7.30;;;4.17;;
21166;SDS011;10741;52.272;9.580;2023-06-24T02:03:49;8.03;;;4.77;;
21166;SDS011;10741;52.272;9.580;2023-06-24T02:06:17;7.77;;;4.93;;
21166;SDS011;10741;52.272;9.580;2023-06-24T02:08:45;5.90;;;5.00;;
21166;SDS011;10741;52.272;9.580;2023-06-24T02:11:13;8.17;;;4.97;;
21166;SDS011;10741;52.272;9.580;2023-06-24T02:13:40;6.50;;;4.80;;
21166;SDS011;10741;52.272;9.580;2023-06-24T02:16:08;5.40;;;4.67;;
21166;SDS011;10741;52.272;9.580;2023-06-24T02:18:35;6.50;;;4.90;;
21166;SDS011;10741;52.272;9.580;2023-06-24T02:21:07;9.53;;;5.07;;
21166;SDS011;10741;52.272;9.580;2023-06-24T02:23:35;6.43;;;5.23;;
21166;SDS011;10741;52.272;9.580;2023-06-24T02:26:02;12.33;;;5.30;;
21166;SDS011;10741;52.272;9.580;2023-06-24T02:28:29;8.27;;;5.40;;
21166;SDS011;10741;52.272;9.580;2023-06-24T02:30:56;6.00;;;5.27;;
21166;SDS011;10741;52.272;9.580;2023-06-24T02:33:23;8.17;;;5.03;;
21166;SDS011;10741;52.272;9.580;2023-06-24T02:35:49;9.30;;;5.83;;
21166;SDS011;10741;52.272;9.580;2023-06-24T02:38:15;11.87;;;5.30;;
21166;SDS011;10741;52.272;9.580;2023-06-24T02:40:42;9.13;;;5.47;;
21166;SDS011;10741;52.272;9.580;2023-06-24T02:43:10;8.43;;;5.13;;
21166;SDS011;10741;52.272;9.580;2023-06-24T02:45:36;8.13;;;5.37;;
21166;SDS011;10741;52.272;9.580;2023-06-24T02:48:02;9.07;;;5.40;;
21166;SDS011;10741;52.272;9.580;2023-06-24T02:50:29;6.83;;;5.57;;
21166;SDS011;10741;52.272;9.580;2023-06-24T02:52:56;7.23;;;5.17;;
21166;SDS011;10741;52.272;9.580;2023-06-24T02:55:22;9.87;;;5.87;;
21166;SDS011;10741;52.272;9.580;2023-06-24T02:57:48;10.40;;;5.50;;
21166;SDS011;10741;52.272;9.580;2023-06-24T03:00:15;9.10;;;6.10;;
21166;SDS011;10741;52.272;9.580;2023-06-24T03:02:43;8.90;;;5.00;;
21166;SDS011;10741;52.272;9.580;2023-06-24T03:05:10;6.73;;;5.83;;
21166;SDS011;10741;52.272;9.580;2023-06-24T03:07:36;8.77;;;5.60;;
21166;SDS011;10741;52.272;9.580;2023-06-24T03:10:03;8.83;;;5.47;;
21166;SDS011;10741;52.272;9.580;2023-06-24T03:12:31;7.23;;;5.50;;
21166;SDS011;10741;52.272;9.580;2023-06-24T03:14:57;7.33;;;5.70;;
21166;SDS011;10741;52.272;9.580;2023-06-24T03:17:23;7.60;;;5.57;;
21166;SDS011;10741;52.272;9.580;2023-06-24T03:19:49;7.97;;;5.17;;
21166;SDS011;10741;52.272;9.580;2023-06-24T03:22:15;8.03;;;5.70;;
21166;SDS011;10741;52.272;9.580;2023-06-24T03:24:42;7.67;;;5.63;;
21166;SDS011;10741;52.272;9.580;2023-06-24T03:27:08;8.57;;;5.43;;
21166;SDS011;10741;52.272;9.580;2023-06-24T03:29:34;10.50;;;6.37;;
21166;SDS011;10741;52.272;9.580;2023-06-24T03:32:00;11.60;;;6.50;;
21166;SDS011;10741;52.272;9.580;2023-06-24T03:34:25;6.40;;;5.80;;
21166;SDS011;10741;52.272;9.580;2023-06-24T03:36:54;7.10;;;5.70;;
21166;SDS011;10741;52.272;9.580;2023-06-24T03:39:20;9.67;;;6.67;;
21166;SDS011;10741;52.272;9.580;2023-06-24T03:41:46;8.40;;;6.63;;
21166;SDS011;10741;52.272;9.580;2023-06-24T03:44:12;8.80;;;6.97;;
21166;SDS011;10741;52.272;9.580;2023-06-24T03:46:38;7.50;;;6.37;;
21166;SDS011;10741;52.272;9.580;2023-06-24T03:49:04;7.57;;;6.67;;
21166;SDS011;10741;52.272;9.580;2023-06-24T03:51:30;7.07;;;6.30;;
21166;SDS011;10741;52.272;9.580;2023-06-24T03:53:56;10.67;;;6.50;;
21166;SDS011;10741;52.272;9.580;2023-06-24T03:56:22;10.00;;;6.53;;
21166;SDS011;10741;52.272;9.580;2023-06-24T03:58:48;10.00;;;7.70;;
21166;SDS011;10741;52.272;9.580;2023-06-24T04:01:13;10.17;;;6.13;;
21166;SDS011;10741;52.272;9.580;2023-06-24T04:03:39;12.33;;;6.80;;
21166;SDS011;10741;52.272;9.580;2023-06-24T04:06:05;10.17;;;7.60;;
21166;SDS011;10741;52.272;9.580;2023-06-24T04:08:30;7.40;;;6.63;;
21166;SDS011;10741;52.272;9.580;2023-06-24T04:10:57;9.77;;;7.13;;
21166;SDS011;10741;52.272;9.580;2023-06-24T04:13:27;9.27;;;7.20;;
21166;SDS011;10741;52.272;9.580;2023-06-24T04:15:53;12.97;;;7.60;;
21166;SDS011;10741;52.272;9.580;2023-06-24T04:18:19;7.53;;;6.83;;
21166;SDS011;10741;52.272;9.580;2023-06-24T04:20:45;9.27;;;7.50;;
21166;SDS011;10741;52.272;9.580;2023-06-24T04:23:13;10.03;;;7.40;;
21166;SDS011;10741;52.272;9.580;2023-06-24T04:25:39;13.30;;;6.93;;
21166;SDS011;10741;52.272;9.580;2023-06-24T04:28:06;8.67;;;7.13;;
21166;SDS011;10741;52.272;9.580;2023-06-24T04:30:32;9.77;;;8.10;;
21166;SDS011;10741;52.272;9.580;2023-06-24T04:33:00;11.80;;;7.10;;
21166;SDS011;10741;52.272;9.580;2023-06-24T04:35:27;12.53;;;7.13;;
21166;SDS011;10741;52.272;9.580;2023-06-24T04:37:53;10.23;;;7.50;;
21166;SDS011;10741;52.272;9.580;2023-06-24T04:40:18;7.93;;;7.17;;
21166;SDS011;10741;52.272;9.580;2023-06-24T04:42:45;10.33;;;7.23;;
21166;SDS011;10741;52.272;9.580;2023-06-24T04:45:11;9.37;;;7.17;;
21166;SDS011;10741;52.272;9.580;2023-06-24T04:47:36;9.87;;;7.33;;
21166;SDS011;10741;52.272;9.580;2023-06-24T04:50:03;10.20;;;7.73;;
21166;SDS011;10741;52.272;9.580;2023-06-24T04:52:29;11.20;;;7.73;;
21166;SDS011;10741;52.272;9.580;2023-06-24T04:54:55;10.57;;;7.67;;
21166;SDS011;10741;52.272;9.580;2023-06-24T04:57:25;11.57;;;7.23;;
21166;SDS011;10741;52.272;9.580;2023-06-24T04:59:52;13.07;;;7.33;;
21166;SDS011;10741;52.272;9.580;2023-06-24T05:02:18;10.27;;;7.77;;
21166;SDS011;10741;52.272;9.580;2023-06-24T05:04:44;12.33;;;7.90;;
21166;SDS011;10741;52.272;9.580;2023-06-24T05:07:10;16.53;;;7.43;;
21166;SDS011;10741;52.272;9.580;2023-06-24T05:09:35;10.87;;;7.57;;
21166;SDS011;10741;52.272;9.580;2023-06-24T05:12:03;14.53;;;8.03;;
21166;SDS011;10741;52.272;9.580;2023-06-24T05:14:35;14.13;;;8.00;;
21166;SDS011;10741;52.272;9.580;2023-06-24T05:17:02;12.87;;;7.90;;
21166;SDS011;10741;52.272;9.580;2023-06-24T05:19:28;10.53;;;7.33;;
21166;SDS011;10741;52.272;9.580;2023-06-24T05:21:54;11.20;;;7.77;;
21166;SDS011;10741;52.272;9.580;2023-06-24T05:24:19;11.50;;;8.10;;
21166;SDS011;10741;52.272;9.580;2023-06-24T05:26:48;11.57;;;7.80;;
21166;SDS011;10741;52.272;9.580;2023-06-24T05:29:14;10.90;;;7.30;;
21166;SDS011;10741;52.272;9.580;2023-06-24T05:31:40;10.13;;;7.50;;
21166;SDS011;10741;52.272;9.580;2023-06-24T05:34:06;13.67;;;8.67;;
21166;SDS011;10741;52.272;9.580;2023-06-24T05:36:32;8.37;;;7.50;;
21166;SDS011;10741;52.272;9.580;2023-06-24T05:38:58;14.80;;;8.37;;
21166;SDS011;10741;52.272;9.580;2023-06-24T05:41:24;9.10;;;7.13;;
21166;SDS011;10741;52.272;9.580;2023-06-24T05:44:01;8.03;;;6.73;;
21166;SDS011;10741;52.272;9.580;2023-06-24T05:46:27;10.23;;;6.47;;
21166;SDS011;10741;52.272;9.580;2023-06-24T05:48:53;10.30;;;6.90;;
21166;SDS011;10741;52.272;9.580;2023-06-24T05:51:19;9.87;;;7.00;;
21166;SDS011;10741;52.272;9.580;2023-06-24T05:53:45;7.10;;;6.40;;
21166;SDS011;10741;52.272;9.580;2023-06-24T05:56:10;8.17;;;7.37;;
21166;SDS011;10741;52.272;9.580;2023-06-24T05:58:36;10.37;;;7.33;;
21166;SDS011;10741;52.272;9.580;2023-06-24T06:01:02;10.77;;;7.47;;
21166;SDS011;10741;52.272;9.580;2023-06-24T06:03:28;9.13;;;7.53;;
21166;SDS011;10741;52.272;9.580;2023-06-24T06:05:53;10.47;;;8.20;;
21166;SDS011;10741;52.272;9.580;2023-06-24T06:08:19;12.20;;;7.63;;
21166;SDS011;10741;52.272;9.580;2023-06-24T06:10:45;9.43;;;7.20;;
21166;SDS011;10741;52.272;9.580;2023-06-24T06:13:11;10.07;;;7.73;;
21166;SDS011;10741;52.272;9.580;2023-06-24T06:15:37;8.37;;;7.43;;
21166;SDS011;10741;52.272;9.580;2023-06-24T06:18:03;9.33;;;7.70;;
21166;SDS011;10741;52.272;9.580;2023-06-24T06:20:29;8.10;;;7.23;;
21166;SDS011;10741;52.272;9.580;2023-06-24T06:22:54;8.77;;;7.50;;
21166;SDS011;10741;52.272;9.580;2023-06-24T06:25:20;9.10;;;7.37;;
21166;SDS011;10741;52.272;9.580;2023-06-24T06:27:46;10.17;;;7.53;;
21166;SDS011;10741;52.272;9.580;2023-06-24T06:30:13;7.60;;;6.80;;
21166;SDS011;10741;52.272;9.580;2023-06-24T06:32:39;8.73;;;7.67;;
21166;SDS011;10741;52.272;9.580;2023-06-24T06:35:04;9.50;;;7.07;;
21166;SDS011;10741;52.272;9.580;2023-06-24T06:37:31;7.53;;;6.73;;
21166;SDS011;10741;52.272;9.580;2023-06-24T06:39:56;7.80;;;6.77;;
21166;SDS011;10741;52.272;9.580;2023-06-24T06:42:22;7.50;;;6.17;;
21166;SDS011;10741;52.272;9.580;2023-06-24T06:44:48;7.80;;;6.53;;
21166;SDS011;10741;52.272;9.580;2023-06-24T06:47:14;10.10;;;6.23;;
21166;SDS011;10741;52.272;9.580;2023-06-24T06:49:39;9.57;;;6.00;;
21166;SDS011;10741;52.272;9.580;2023-06-24T06:52:08;7.30;;;6.60;;
21166;SDS011;10741;52.272;9.580;2023-06-24T06:54:34;9.20;;;6.07;;
21166;SDS011;10741;52.272;9.580;2023-06-24T06:57:03;6.77;;;6.00;;
21166;SDS011;10741;52.272;9.580;2023-06-24T06:59:30;7.70;;;5.83;;
21166;SDS011;10741;52.272;9.580;2023-06-24T07:01:57;8.30;;;6.30;;
21166;SDS011;10741;52.272;9.580;2023-06-24T07:04:23;6.50;;;5.63;;
21166;SDS011;10741;52.272;9.580;2023-06-24T07:06:49;7.43;;;5.90;;
21166;SDS011;10741;52.272;9.580;2023-06-24T07:09:15;9.07;;;5.43;;
21166;SDS011;10741;52.272;9.580;2023-06-24T07:11:41;6.30;;;5.30;;
21166;SDS011;10741;52.272;9.580;2023-06-24T07:14:07;11.83;;;7.33;;
21166;SDS011;10741;52.272;9.580;2023-06-24T07:16:33;7.70;;;6.10;;
21166;SDS011;10741;52.272;9.580;2023-06-24T07:18:59;7.80;;;6.73;;
21166;SDS011;10741;52.272;9.580;2023-06-24T07:21:25;7.07;;;6.33;;
21166;SDS011;10741;52.272;9.580;2023-06-24T07:23:50;8.77;;;5.80;;
21166;SDS011;10741;52.272;9.580;2023-06-24T07:26:16;10.37;;;6.13;;
21166;SDS011;10741;52.272;9.580;2023-06-24T07:28:42;8.13;;;5.37;;
21166;SDS011;10741;52.272;9.580;2023-06-24T07:31:07;7.67;;;6.07;;
21166;SDS011;10741;52.272;9.580;2023-06-24T07:33:33;8.83;;;6.30;;
21166;SDS011;10741;52.272;9.580;2023-06-24T07:35:59;6.33;;;5.73;;
21166;SDS011;10741;52.272;9.580;2023-06-24T07:38:25;6.77;;;6.03;;
21166;SDS011;10741;52.272;9.580;2023-06-24T07:40:53;7.20;;;5.80;;
21166;SDS011;10741;52.272;9.580;2023-06-24T07:43:19;6.77;;;5.27;;
21166;SDS011;10741;52.272;9.580;2023-06-24T07:45:45;5.30;;;4.80;;
21166;SDS011;10741;52.272;9.580;2023-06-24T07:48:10;6.93;;;5.63;;
21166;SDS011;10741;52.272;9.580;2023-06-24T07:50:37;6.17;;;5.47;;
21166;SDS011;10741;52.272;9.580;2023-06-24T07:53:04;7.37;;;5.83;;
21166;SDS011;10741;52.272;9.580;2023-06-24T07:55:30;6.63;;;5.57;;
21166;SDS011;10741;52.272;9.580;2023-06-24T07:57:55;6.60;;;5.30;;
21166;SDS011;10741;52.272;9.580;2023-06-24T08:00:23;6.73;;;5.63;;
21166;SDS011;10741;52.272;9.580;2023-06-24T08:02:50;6.80;;;6.10;;
21166;SDS011;10741;52.272;9.580;2023-06-24T08:05:15;8.90;;;5.63;;
21166;SDS011;10741;52.272;9.580;2023-06-24T08:07:43;7.57;;;5.83;;
21166;SDS011;10741;52.272;9.580;2023-06-24T08:10:09;7.37;;;6.00;;
21166;SDS011;10741;52.272;9.580;2023-06-24T08:12:35;6.70;;;5.50;;
21166;SDS011;10741;52.272;9.580;2023-06-24T08:15:01;6.43;;;5.77;;
21166;SDS011;10741;52.272;9.580;2023-06-24T08:17:27;7.43;;;5.90;;
21166;SDS011;10741;52.272;9.580;2023-06-24T08:19:53;6.23;;;5.47;;
21166;SDS011;10741;52.272;9.580;2023-06-24T08:22:18;7.87;;;5.77;;
21166;SDS011;10741;52.272;9.580;2023-06-24T08:24:44;8.10;;;5.40;;
21166;SDS011;10741;52.272;9.580;2023-06-24T08:27:10;6.60;;;5.83;;
21166;SDS011;10741;52.272;9.580;2023-06-24T08:29:36;6.43;;;5.60;;
21166;SDS011;10741;52.272;9.580;2023-06-24T08:32:03;7.73;;;5.47;;
21166;SDS011;10741;52.272;9.580;2023-06-24T08:34:29;5.23;;;4.77;;
21166;SDS011;10741;52.272;9.580;2023-06-24T08:36:55;5.80;;;5.30;;
21166;SDS011;10741;52.272;9.580;2023-06-24T08:39:21;5.30;;;4.73;;
21166;SDS011;10741;52.272;9.580;2023-06-24T08:41:46;5.67;;;5.17;;
21166;SDS011;10741;52.272;9.580;2023-06-24T08:44:12;6.20;;;5.13;;
21166;SDS011;10741;52.272;9.580;2023-06-24T08:46:38;10.67;;;4.97;;
21166;SDS011;10741;52.272;9.580;2023-06-24T08:49:21;5.97;;;4.53;;
21166;SDS011;10741;52.272;9.580;2023-06-24T08:54:34;5.43;;;4.93;;
21166;SDS011;10741;52.272;9.580;2023-06-24T08:57:01;5.17;;;4.67;;
21166;SDS011;10741;52.272;9.580;2023-06-24T08:59:30;6.77;;;5.30;;
21166;SDS011;10741;52.272;9.580;2023-06-24T09:01:56;5.50;;;4.33;;
21166;SDS011;10741;52.272;9.580;2023-06-24T09:04:22;5.80;;;5.20;;
21166;SDS011;10741;52.272;9.580;2023-06-24T09:06:48;6.70;;;4.90;;
21166;SDS011;10741;52.272;9.580;2023-06-24T09:09:18;6.63;;;4.70;;
21166;SDS011;10741;52.272;9.580;2023-06-24T09:11:51;4.50;;;4.10;;
21166;SDS011;10741;52.272;9.580;2023-06-24T09:14:18;5.53;;;4.13;;
21166;SDS011;10741;52.272;9.580;2023-06-24T09:17:18;6.13;;;4.80;;
21166;SDS011;10741;52.272;9.580;2023-06-24T09:19:36;4.23;;;3.70;;
21166;SDS011;10741;52.272;9.580;2023-06-24T09:22:03;5.17;;;4.33;;
21166;SDS011;10741;52.272;9.580;2023-06-24T09:24:33;5.23;;;4.00;;
21166;SDS011;10741;52.272;9.580;2023-06-24T09:27:00;4.47;;;4.07;;
21166;SDS011;10741;52.272;9.580;2023-06-24T09:29:26;5.27;;;4.23;;
21166;SDS011;10741;52.272;9.580;2023-06-24T09:31:59;3.83;;;3.50;;
21166;SDS011;10741;52.272;9.580;2023-06-24T09:34:26;5.13;;;3.90;;
21166;SDS011;10741;52.272;9.580;2023-06-24T09:36:54;4.30;;;3.90;;
21166;SDS011;10741;52.272;9.580;2023-06-24T09:39:20;6.20;;;4.20;;
21166;SDS011;10741;52.272;9.580;2023-06-24T09:41:50;5.03;;;4.10;;
21166;SDS011;10741;52.272;9.580;2023-06-24T09:44:16;5.43;;;3.90;;
21166;SDS011;10741;52.272;9.580;2023-06-24T09:46:45;5.67;;;3.90;;
21166;SDS011;10741;52.272;9.580;2023-06-24T09:49:12;4.50;;;3.80;;
21166;SDS011;10741;52.272;9.580;2023-06-24T09:51:39;5.97;;;3.53;;
21166;SDS011;10741;52.272;9.580;2023-06-24T09:54:07;6.57;;;4.20;;
21166;SDS011;10741;52.272;9.580;2023-06-24T09:56:35;4.53;;;3.80;;
21166;SDS011;10741;52.272;9.580;2023-06-24T09:59:04;4.20;;;3.63;;
21166;SDS011;10741;52.272;9.580;2023-06-24T10:01:35;5.47;;;4.03;;
21166;SDS011;10741;52.272;9.580;2023-06-24T10:04:04;5.30;;;4.87;;
21166;SDS011;10741;52.272;9.580;2023-06-24T10:06:31;4.33;;;3.83;;
21166;SDS011;10741;52.272;9.580;2023-06-24T10:08:59;3.80;;;3.40;;
21166;SDS011;10741;52.272;9.580;2023-06-24T10:11:25;4.30;;;3.67;;
21166;SDS011;10741;52.272;9.580;2023-06-24T10:13:51;5.67;;;3.70;;
21166;SDS011;10741;52.272;9.580;2023-06-24T10:16:17;4.60;;;3.60;;
21166;SDS011;10741;52.272;9.580;2023-06-24T10:18:44;5.73;;;3.60;;
21166;SDS011;10741;52.272;9.580;2023-06-24T10:21:10;3.37;;;3.07;;
21166;SDS011;10741;52.272;9.580;2023-06-24T10:26:27;4.73;;;3.77;;
21166;SDS011;10741;52.272;9.580;2023-06-24T10:31:53;4.13;;;3.60;;
21166;SDS011;10741;52.272;9.580;2023-06-24T10:37:22;5.40;;;3.37;;
21166;SDS011;10741;52.272;9.580;2023-06-24T10:42:39;6.60;;;3.63;;
21166;SDS011;10741;52.272;9.580;2023-06-24T10:47:45;3.37;;;3.07;;
21166;SDS011;10741;52.272;9.580;2023-06-24T10:50:13;5.13;;;3.00;;
21166;SDS011;10741;52.272;9.580;2023-06-24T10:52:43;3.60;;;3.30;;
21166;SDS011;10741;52.272;9.580;2023-06-24T10:55:14;3.40;;;3.10;;
21166;SDS011;10741;52.272;9.580;2023-06-24T10:57:41;3.57;;;3.27;;
21166;SDS011;10741;52.272;9.580;2023-06-24T11:00:06;4.10;;;3.47;;
21166;SDS011;10741;52.272;9.580;2023-06-24T11:02:33;3.63;;;3.20;;
21166;SDS011;10741;52.272;9.580;2023-06-24T11:04:59;3.80;;;3.43;;
21166;SDS011;10741;52.272;9.580;2023-06-24T11:07:29;4.33;;;3.70;;
21166;SDS011;10741;52.272;9.580;2023-06-24T11:10:01;4.90;;;3.53;;
21166;SDS011;10741;52.272;9.580;2023-06-24T11:12:32;3.60;;;3.30;;
21166;SDS011;10741;52.272;9.580;2023-06-24T11:15:00;6.10;;;3.23;;
21166;SDS011;10741;52.272;9.580;2023-06-24T11:17:28;3.97;;;3.30;;
21166;SDS011;10741;52.272;9.580;2023-06-24T11:19:54;4.90;;;3.37;;
21166;SDS011;10741;52.272;9.580;2023-06-24T11:22:21;3.90;;;3.23;;
21166;SDS011;10741;52.272;9.580;2023-06-24T11:24:48;3.93;;;3.53;;
21166;SDS011;10741;52.272;9.580;2023-06-24T11:27:14;3.80;;;3.47;;
21166;SDS011;10741;52.272;9.580;2023-06-24T11:29:40;3.27;;;2.97;;
21166;SDS011;10741;52.272;9.580;2023-06-24T11:32:09;3.43;;;2.90;;
21166;SDS011;10741;52.272;9.580;2023-06-24T11:34:37;4.43;;;3.40;;
21166;SDS011;10741;52.272;9.580;2023-06-24T11:37:13;4.53;;;3.13;;
21166;SDS011;10741;52.272;9.580;2023-06-24T11:39:40;3.93;;;3.50;;
21166;SDS011;10741;52.272;9.580;2023-06-24T11:42:09;5.77;;;3.40;;
21166;SDS011;10741;52.272;9.580;2023-06-24T11:44:45;5.03;;;3.20;;
21166;SDS011;10741;52.272;9.580;2023-06-24T11:47:11;3.53;;;3.23;;
21166;SDS011;10741;52.272;9.580;2023-06-24T11:49:50;4.50;;;3.77;;
21166;SDS011;10741;52.272;9.580;2023-06-24T11:52:19;3.90;;;3.60;;
21166;SDS011;10741;52.272;9.580;2023-06-24T11:55:10;4.23;;;3.20;;
21166;SDS011;10741;52.272;9.580;2023-06-24T11:57:59;5.10;;;3.33;;
21166;SDS011;10741;52.272;9.580;2023-06-24T12:03:06;8.13;;;4.83;;
21166;SDS011;10741;52.272;9.580;2023-06-24T12:05:34;4.87;;;4.10;;
21166;SDS011;10741;52.272;9.580;2023-06-24T12:08:05;5.77;;;4.00;;
21166;SDS011;10741;52.272;9.580;2023-06-24T12:10:32;5.77;;;4.30;;
21166;SDS011;10741;52.272;9.580;2023-06-24T12:12:59;5.30;;;4.00;;
21166;SDS011;10741;52.272;9.580;2023-06-24T12:15:29;4.07;;;3.60;;
21166;SDS011;10741;52.272;9.580;2023-06-24T12:17:55;4.50;;;4.03;;
21166;SDS011;10741;52.272;9.580;2023-06-24T12:20:21;4.13;;;3.70;;
21166;SDS011;10741;52.272;9.580;2023-06-24T12:22:47;5.90;;;4.17;;
21166;SDS011;10741;52.272;9.580;2023-06-24T12:25:13;10.03;;;4.27;;
21166;SDS011;10741;52.272;9.580;2023-06-24T12:27:41;5.80;;;4.17;;
21166;SDS011;10741;52.272;9.580;2023-06-24T12:30:08;4.73;;;4.23;;
21166;SDS011;10741;52.272;9.580;2023-06-24T12:32:34;6.77;;;4.50;;
21166;SDS011;10741;52.272;9.580;2023-06-24T12:35:01;4.47;;;4.00;;
21166;SDS011;10741;52.272;9.580;2023-06-24T12:37:29;4.70;;;4.30;;
21166;SDS011;10741;52.272;9.580;2023-06-24T12:39:59;8.20;;;4.60;;
21166;SDS011;10741;52.272;9.580;2023-06-24T12:42:25;5.73;;;4.50;;
21166;SDS011;10741;52.272;9.580;2023-06-24T12:44:51;4.80;;;4.40;;
21166;SDS011;10741;52.272;9.580;2023-06-24T12:47:18;5.50;;;4.67;;
21166;SDS011;10741;52.272;9.580;2023-06-24T12:49:44;5.07;;;4.13;;
21166;SDS011;10741;52.272;9.580;2023-06-24T12:52:10;4.87;;;4.37;;
21166;SDS011;10741;52.272;9.580;2023-06-24T12:54:37;6.83;;;4.33;;
21166;SDS011;10741;52.272;9.580;2023-06-24T12:57:03;4.23;;;3.83;;
21166;SDS011;10741;52.272;9.580;2023-06-24T12:59:29;4.63;;;4.13;;
21166;SDS011;10741;52.272;9.580;2023-06-24T13:01:55;5.37;;;3.90;;
21166;SDS011;10741;52.272;9.580;2023-06-24T13:04:20;5.07;;;4.13;;
21166;SDS011;10741;52.272;9.580;2023-06-24T13:06:48;4.77;;;4.00;;
21166;SDS011;10741;52.272;9.580;2023-06-24T13:09:16;5.80;;;3.60;;
21166;SDS011;10741;52.272;9.580;2023-06-24T13:11:42;6.10;;;4.03;;
21166;SDS011;10741;52.272;9.580;2023-06-24T13:14:08;3.90;;;3.60;;
21166;SDS011;10741;52.272;9.580;2023-06-24T13:16:35;4.20;;;3.80;;
21166;SDS011;10741;52.272;9.580;2023-06-24T13:19:04;4.50;;;4.10;;
21166;SDS011;10741;52.272;9.580;2023-06-24T13:21:30;6.47;;;3.97;;
21166;SDS011;10741;52.272;9.580;2023-06-24T13:23:56;4.77;;;3.80;;
21166;SDS011;10741;52.272;9.580;2023-06-24T13:26:22;4.57;;;4.00;;
21166;SDS011;10741;52.272;9.580;2023-06-24T13:28:49;5.23;;;3.97;;
21166;SDS011;10741;52.272;9.580;2023-06-24T13:31:15;4.60;;;4.17;;
21166;SDS011;10741;52.272;9.580;2023-06-24T13:33:41;4.07;;;3.70;;
21166;SDS011;10741;52.272;9.580;2023-06-24T13:36:07;5.80;;;4.70;;
21166;SDS011;10741;52.272;9.580;2023-06-24T13:38:36;11.43;;;6.70;;
21166;SDS011;10741;52.272;9.580;2023-06-24T13:41:02;15.57;;;7.17;;
21166;SDS011;10741;52.272;9.580;2023-06-24T13:43:28;4.97;;;4.37;;
21166;SDS011;10741;52.272;9.580;2023-06-24T13:45:54;4.80;;;4.40;;
21166;SDS011;10741;52.272;9.580;2023-06-24T13:48:19;5.57;;;4.60;;
21166;SDS011;10741;52.272;9.580;2023-06-24T13:50:45;5.57;;;4.33;;
21166;SDS011;10741;52.272;9.580;2023-06-24T13:53:11;5.17;;;4.17;;
21166;SDS011;10741;52.272;9.580;2023-06-24T13:55:37;5.67;;;4.40;;
21166;SDS011;10741;52.272;9.580;2023-06-24T13:58:03;5.17;;;4.23;;
21166;SDS011;10741;52.272;9.580;2023-06-24T14:00:28;8.83;;;4.77;;
21166;SDS011;10741;52.272;9.580;2023-06-24T14:02:54;5.80;;;4.40;;
21166;SDS011;10741;52.272;9.580;2023-06-24T14:05:21;5.73;;;4.17;;
21166;SDS011;10741;52.272;9.580;2023-06-24T14:07:47;5.60;;;4.40;;
21166;SDS011;10741;52.272;9.580;2023-06-24T14:10:12;5.20;;;4.17;;
21166;SDS011;10741;52.272;9.580;2023-06-24T14:12:40;6.90;;;5.27;;
21166;SDS011;10741;52.272;9.580;2023-06-24T14:15:08;5.23;;;4.67;;
21166;SDS011;10741;52.272;9.580;2023-06-24T14:17:34;5.30;;;4.80;;
21166;SDS011;10741;52.272;9.580;2023-06-24T14:20:00;5.73;;;4.63;;
21166;SDS011;10741;52.272;9.580;2023-06-24T14:22:26;6.40;;;4.20;;
21166;SDS011;10741;52.272;9.580;2023-06-24T14:24:51;4.80;;;4.37;;
21166;SDS011;10741;52.272;9.580;2023-06-24T14:27:17;5.17;;;4.17;;
21166;SDS011;10741;52.272;9.580;2023-06-24T14:29:43;4.40;;;4.00;;
21166;SDS011;10741;52.272;9.580;2023-06-24T14:32:09;5.37;;;4.37;;
21166;SDS011;10741;52.272;9.580;2023-06-24T14:34:34;5.07;;;4.57;;
21166;SDS011;10741;52.272;9.580;2023-06-24T14:37:00;4.90;;;4.40;;
21166;SDS011;10741;52.272;9.580;2023-06-24T14:39:26;5.83;;;4.63;;
21166;SDS011;10741;52.272;9.580;2023-06-24T14:41:53;5.57;;;4.90;;
21166;SDS011;10741;52.272;9.580;2023-06-24T14:44:19;5.30;;;4.80;;
21166;SDS011;10741;52.272;9.580;2023-06-24T14:46:44;4.90;;;4.50;;
21166;SDS011;10741;52.272;9.580;2023-06-24T14:49:10;8.80;;;5.17;;
21166;SDS011;10741;52.272;9.580;2023-06-24T14:51:36;5.13;;;4.63;;
21166;SDS011;10741;52.272;9.580;2023-06-24T14:54:01;8.83;;;5.00;;
21166;SDS011;10741;52.272;9.580;2023-06-24T14:56:27;6.33;;;4.30;;
21166;SDS011;10741;52.272;9.580;2023-06-24T14:58:53;4.60;;;4.20;;
21166;SDS011;10741;52.272;9.580;2023-06-24T15:01:19;8.07;;;4.97;;
21166;SDS011;10741;52.272;9.580;2023-06-24T15:03:45;7.50;;;4.50;;
21166;SDS011;10741;52.272;9.580;2023-06-24T15:06:10;8.47;;;5.60;;
21166;SDS011;10741;52.272;9.580;2023-06-24T15:08:36;5.07;;;4.50;;
21166;SDS011;10741;52.272;9.580;2023-06-24T15:11:08;7.13;;;4.50;;
21166;SDS011;10741;52.272;9.580;2023-06-24T15:13:33;5.43;;;4.93;;
21166;SDS011;10741;52.272;9.580;2023-06-24T15:15:59;5.43;;;4.70;;
21166;SDS011;10741;52.272;9.580;2023-06-24T15:18:25;5.37;;;4.60;;
21166;SDS011;10741;52.272;9.580;2023-06-24T15:20:51;5.27;;;4.07;;